createdAt,value
2022-08-26T00:00:59.888Z,76.60
2022-08-26T00:03:26.645Z,76.70
2022-08-26T00:05:54.575Z,76.90
2022-08-26T00:08:21.568Z,76.90
2022-08-26T00:10:48.771Z,77.00
2022-08-26T00:13:15.980Z,77.20
2022-08-26T00:15:47.048Z,77.20
2022-08-26T00:18:21.994Z,77.20
2022-08-26T00:20:49.263Z,77.00
2022-08-26T00:23:16.195Z,76.90
2022-08-26T00:25:43.076Z,76.70
2022-08-26T00:28:10.979Z,76.80
2022-08-26T00:30:38.185Z,77.00
2022-08-26T00:33:06.831Z,77.10
2022-08-26T00:35:34.275Z,77.10
2022-08-26T00:38:03.665Z,77.20
2022-08-26T00:40:35.626Z,77.40
2022-08-26T00:43:02.513Z,77.80
2022-08-26T00:45:40.297Z,77.60
2022-08-26T00:48:07.549Z,77.60
2022-08-26T00:50:38.843Z,77.40
2022-08-26T00:53:21.525Z,77.20
2022-08-26T00:56:01.535Z,77.10
2022-08-26T00:58:29.099Z,77.30
2022-08-26T01:00:55.993Z,77.40
2022-08-26T01:03:24.451Z,77.50
2022-08-26T01:05:53.630Z,77.60
2022-08-26T01:08:22.218Z,77.60
2022-08-26T01:10:52.372Z,77.70
2022-08-26T01:13:22.679Z,77.80
2022-08-26T01:15:54.119Z,78.00
2022-08-26T01:18:21.005Z,78.00
2022-08-26T01:20:51.481Z,77.80
2022-08-26T01:23:18.314Z,77.70
2022-08-26T01:25:55.037Z,77.50
2022-08-26T01:28:25.111Z,77.60
2022-08-26T01:30:53.129Z,77.70
2022-08-26T01:33:23.748Z,77.80
2022-08-26T01:35:50.745Z,77.90
2022-08-26T01:38:18.581Z,78.00
2022-08-26T01:40:45.927Z,78.10
2022-08-26T01:43:18.337Z,78.20
2022-08-26T01:45:45.252Z,78.40
2022-08-26T01:48:17.515Z,78.60
2022-08-26T01:50:44.340Z,78.30
2022-08-26T01:53:12.491Z,78.50
2022-08-26T01:55:41.336Z,78.00
2022-08-26T01:58:09.881Z,78.00
2022-08-26T02:00:37.203Z,78.20
2022-08-26T02:03:18.425Z,78.20
2022-08-26T02:05:48.894Z,78.30
2022-08-26T02:08:19.008Z,78.40
2022-08-26T02:10:54.895Z,78.40
2022-08-26T02:13:21.967Z,78.50
2022-08-26T02:15:49.370Z,78.80
2022-08-26T02:18:17.041Z,78.90
2022-08-26T02:20:44.382Z,78.60
2022-08-26T02:23:11.168Z,78.20
2022-08-26T02:26:06.098Z,78.10
2022-08-26T02:28:35.928Z,78.20
2022-08-26T02:31:03.030Z,78.80
2022-08-26T02:33:31.541Z,79.50
2022-08-26T02:35:58.826Z,79.50
2022-08-26T02:38:26.105Z,79.40
2022-08-26T02:40:52.876Z,79.30
2022-08-26T02:43:19.647Z,79.60
2022-08-26T02:45:59.528Z,79.20
2022-08-26T02:48:28.451Z,79.00
2022-08-26T02:50:55.220Z,78.70
2022-08-26T02:53:25.341Z,78.50
2022-08-26T02:55:52.478Z,78.40
2022-08-26T02:58:19.277Z,78.60
2022-08-26T03:00:52.990Z,78.70
2022-08-26T03:03:20.767Z,78.80
2022-08-26T03:05:50.506Z,78.90
2022-08-26T03:08:17.369Z,79.00
2022-08-26T03:10:44.306Z,79.00
2022-08-26T03:13:11.097Z,79.00
2022-08-26T03:15:37.841Z,79.10
2022-08-26T03:18:05.297Z,79.40
2022-08-26T03:20:32.187Z,78.90
2022-08-26T03:22:59.084Z,78.80
2022-08-26T03:25:26.056Z,78.60
2022-08-26T03:27:53.284Z,78.70
2022-08-26T03:30:39.673Z,78.90
2022-08-26T03:33:12.590Z,78.90
2022-08-26T03:35:40.168Z,79.00
2022-08-26T03:38:10.099Z,79.20
2022-08-26T03:40:36.975Z,79.30
2022-08-26T03:43:04.860Z,79.20
2022-08-26T03:45:32.124Z,79.30
2022-08-26T03:47:59.375Z,79.50
2022-08-26T03:50:26.555Z,79.30
2022-08-26T03:52:54.097Z,79.10
2022-08-26T03:55:23.778Z,78.90
2022-08-26T03:57:51.104Z,78.90
2022-08-26T04:00:18.743Z,79.00
2022-08-26T04:02:47.409Z,79.20
2022-08-26T04:05:14.396Z,79.30
2022-08-26T04:07:42.632Z,79.20
2022-08-26T04:10:11.376Z,79.20
2022-08-26T04:12:39.639Z,79.30
2022-08-26T04:15:07.859Z,79.50
2022-08-26T04:17:35.039Z,79.60
2022-08-26T04:20:02.777Z,79.50
2022-08-26T04:22:29.603Z,79.30
2022-08-26T04:24:56.466Z,79.00
2022-08-26T04:27:23.481Z,79.00
2022-08-26T04:29:55.148Z,79.20
2022-08-26T04:32:22.320Z,79.30
2022-08-26T04:34:49.289Z,79.40
2022-08-26T04:37:16.454Z,81.00
2022-08-26T04:39:44.634Z,81.10
2022-08-26T04:42:13.406Z,81.10
2022-08-26T04:44:41.132Z,81.00
2022-08-26T04:47:07.945Z,81.10
2022-08-26T04:49:35.945Z,80.90
2022-08-26T04:52:05.224Z,81.00
2022-08-26T04:54:32.828Z,79.80
2022-08-26T04:57:00.118Z,80.60
2022-08-26T04:59:27.178Z,80.70
2022-08-26T05:01:57.310Z,81.80
2022-08-26T05:04:24.578Z,81.10
2022-08-26T05:06:54.061Z,81.20
2022-08-26T05:09:23.705Z,81.30
2022-08-26T05:11:52.742Z,81.10
2022-08-26T05:14:23.590Z,80.90
2022-08-26T05:16:52.276Z,80.90
2022-08-26T05:19:19.586Z,81.10
2022-08-26T05:21:47.775Z,80.90
2022-08-26T05:24:14.786Z,80.60
2022-08-26T05:26:42.066Z,80.70
2022-08-26T05:29:11.670Z,80.70
2022-08-26T05:31:38.980Z,80.50
2022-08-26T05:34:06.163Z,80.90
2022-08-26T05:36:35.120Z,81.00
2022-08-26T05:39:03.434Z,79.20
2022-08-26T05:41:34.629Z,78.90
2022-08-26T05:44:06.163Z,80.30
2022-08-26T05:46:33.172Z,80.80
2022-08-26T05:49:01.388Z,81.40
2022-08-26T05:51:30.470Z,81.30
2022-08-26T05:53:57.956Z,81.30
2022-08-26T05:56:26.140Z,81.50
2022-08-26T05:58:53.366Z,81.70
2022-08-26T06:01:21.974Z,81.60
2022-08-26T06:03:52.019Z,81.90
2022-08-26T06:06:28.534Z,82.20
2022-08-26T06:08:57.982Z,81.70
2022-08-26T06:11:25.534Z,81.30
2022-08-26T06:13:53.620Z,81.30
2022-08-26T06:16:23.062Z,80.90
2022-08-26T06:18:51.706Z,80.70
2022-08-26T06:21:23.805Z,80.80
2022-08-26T06:24:10.753Z,80.60
2022-08-26T06:26:37.835Z,80.10
2022-08-26T06:29:05.015Z,81.40
2022-08-26T06:31:35.700Z,80.20
2022-08-26T06:34:07.282Z,81.60
2022-08-26T06:36:38.034Z,75.00
2022-08-26T06:39:07.334Z,75.30
2022-08-26T06:41:34.691Z,77.00
2022-08-26T06:44:02.518Z,77.60
2022-08-26T06:46:29.805Z,78.20
2022-08-26T06:48:58.461Z,78.40
2022-08-26T06:51:30.749Z,77.10
2022-08-26T06:54:01.994Z,77.60
2022-08-26T06:56:32.964Z,77.80
2022-08-26T06:59:00.027Z,77.30
2022-08-26T07:01:29.209Z,78.20
2022-08-26T07:03:58.435Z,78.30
2022-08-26T07:06:26.241Z,77.80
2022-08-26T07:08:53.681Z,78.30
2022-08-26T07:11:21.409Z,78.40
2022-08-26T07:13:48.195Z,78.20
2022-08-26T07:16:17.524Z,78.00
2022-08-26T07:18:45.017Z,78.30
2022-08-26T07:21:14.383Z,79.80
2022-08-26T07:23:41.622Z,78.90
2022-08-26T07:26:11.231Z,77.70
2022-08-26T07:28:38.241Z,77.90
2022-08-26T07:31:09.610Z,78.50
2022-08-26T07:33:37.291Z,77.60
2022-08-26T07:36:04.477Z,78.20
2022-08-26T07:38:33.925Z,77.50
2022-08-26T07:41:01.834Z,78.10
2022-08-26T07:43:29.271Z,78.80
2022-08-26T07:45:56.287Z,78.90
2022-08-26T07:48:23.290Z,78.00
2022-08-26T07:50:50.852Z,76.60
2022-08-26T07:53:20.671Z,77.20
2022-08-26T07:55:47.716Z,76.60
2022-08-26T07:58:14.639Z,76.20
2022-08-26T08:00:42.530Z,76.40
2022-08-26T08:03:10.134Z,76.60
2022-08-26T08:05:37.631Z,77.00
2022-08-26T08:08:26.633Z,77.00
2022-08-26T08:10:55.500Z,76.50
2022-08-26T08:13:23.148Z,76.30
2022-08-26T08:15:50.540Z,76.40
2022-08-26T08:18:18.181Z,77.00
2022-08-26T08:21:04.760Z,78.00
2022-08-26T08:23:32.848Z,77.80
2022-08-26T08:26:03.409Z,78.00
2022-08-26T08:28:30.252Z,77.60
2022-08-26T08:30:57.745Z,76.80
2022-08-26T08:33:24.609Z,76.20
2022-08-26T08:35:52.027Z,75.10
2022-08-26T08:38:19.026Z,77.00
2022-08-26T08:40:46.122Z,76.80
2022-08-26T08:43:40.010Z,76.50
2022-08-26T08:46:11.538Z,75.30
2022-08-26T08:48:43.144Z,75.60
2022-08-26T08:51:14.870Z,75.40
2022-08-26T08:53:43.571Z,76.10
2022-08-26T08:56:31.488Z,76.20
2022-08-26T08:59:21.395Z,76.50
2022-08-26T09:02:03.388Z,77.20
2022-08-26T09:05:00.857Z,77.80
2022-08-26T09:07:53.799Z,78.60
2022-08-26T09:10:39.324Z,80.00
2022-08-26T09:13:25.426Z,79.70
2022-08-26T09:16:00.150Z,79.30
2022-08-26T09:19:00.060Z,78.90
2022-08-26T09:21:29.102Z,78.40
2022-08-26T09:23:57.002Z,78.00
2022-08-26T09:26:29.195Z,78.20
2022-08-26T09:29:08.782Z,78.00
2022-08-26T09:31:36.548Z,77.40
2022-08-26T09:34:21.302Z,76.80
2022-08-26T09:36:58.310Z,76.40
2022-08-26T09:39:28.038Z,76.20
2022-08-26T09:42:11.032Z,75.90
2022-08-26T09:44:58.373Z,75.80
2022-08-26T09:47:51.890Z,75.70
2022-08-26T09:50:30.232Z,76.40
2022-08-26T09:53:14.530Z,77.50
2022-08-26T09:55:43.145Z,77.70
2022-08-26T09:58:14.907Z,78.10
2022-08-26T10:00:56.095Z,78.60
2022-08-26T10:03:33.449Z,79.30
2022-08-26T10:06:02.347Z,81.30
2022-08-26T10:08:35.025Z,81.90
2022-08-26T10:11:04.483Z,81.00
2022-08-26T10:13:31.285Z,79.70
2022-08-26T10:16:24.108Z,79.20
2022-08-26T10:19:00.471Z,78.30
2022-08-26T10:21:32.056Z,77.70
2022-08-26T10:23:59.762Z,77.10
2022-08-26T10:26:51.095Z,77.70
2022-08-26T10:29:26.254Z,76.60
2022-08-26T10:32:02.426Z,76.50
2022-08-26T10:34:31.449Z,76.30
2022-08-26T10:37:14.422Z,76.00
2022-08-26T10:39:57.338Z,75.90
2022-08-26T10:42:42.843Z,75.90
2022-08-26T10:45:15.555Z,75.60
2022-08-26T10:48:07.293Z,75.50
2022-08-26T10:50:38.879Z,75.40
2022-08-26T10:53:25.247Z,75.30
2022-08-26T10:56:15.733Z,75.10
2022-08-26T10:59:34.133Z,74.90
2022-08-26T11:02:14.765Z,74.80
2022-08-26T11:04:59.260Z,74.90
2022-08-26T11:07:36.849Z,74.80
2022-08-26T11:10:06.838Z,74.70
2022-08-26T11:12:37.163Z,74.50
2022-08-26T11:15:09.052Z,74.30
2022-08-26T11:17:45.052Z,74.50
2022-08-26T11:20:31.967Z,74.50
2022-08-26T11:23:23.247Z,74.60
2022-08-26T11:25:57.007Z,74.40
2022-08-26T11:28:44.856Z,74.30
2022-08-26T11:31:12.699Z,74.30
2022-08-26T11:33:48.306Z,74.10
2022-08-26T11:36:42.330Z,74.20
2022-08-26T11:39:31.730Z,74.00
2022-08-26T11:42:27.757Z,74.10
2022-08-26T11:44:55.578Z,74.20
2022-08-26T11:47:30.389Z,74.00
2022-08-26T11:50:27.801Z,74.00
2022-08-26T11:53:04.401Z,73.80
2022-08-26T11:55:34.882Z,73.80
2022-08-26T11:58:04.756Z,73.90
2022-08-26T12:00:40.041Z,74.10
2022-08-26T12:03:16.794Z,73.60
2022-08-26T12:05:45.692Z,73.40
2022-08-26T12:08:24.159Z,74.30
2022-08-26T12:11:08.651Z,77.30
2022-08-26T12:13:39.120Z,78.70
2022-08-26T12:16:06.665Z,78.70
2022-08-26T12:18:36.814Z,77.70
2022-08-26T12:21:16.306Z,79.40
2022-08-26T12:23:46.822Z,79.10
2022-08-26T12:26:24.193Z,79.40
2022-08-26T12:29:12.597Z,79.30
2022-08-26T12:31:53.758Z,79.50
2022-08-26T12:34:20.760Z,79.30
2022-08-26T12:36:49.765Z,79.90
2022-08-26T12:39:26.066Z,79.50
2022-08-26T12:41:54.812Z,80.00
2022-08-26T12:44:53.489Z,79.40
2022-08-26T12:47:32.691Z,78.90
2022-08-26T12:50:19.317Z,79.50
2022-08-26T12:53:11.100Z,78.40
2022-08-26T12:55:41.734Z,78.70
2022-08-26T12:58:32.803Z,78.10
2022-08-26T13:01:08.801Z,77.50
2022-08-26T13:03:38.642Z,76.40
2022-08-26T13:06:16.432Z,76.80
2022-08-26T13:08:59.115Z,77.00
2022-08-26T13:11:25.890Z,76.20
2022-08-26T13:14:00.581Z,75.90
2022-08-26T13:16:28.877Z,76.90
2022-08-26T13:19:00.809Z,76.40
2022-08-26T13:21:37.734Z,76.30
2022-08-26T13:24:11.767Z,77.00
2022-08-26T13:26:39.978Z,76.90
2022-08-26T13:29:10.171Z,75.90
2022-08-26T13:31:38.804Z,75.40
2022-08-26T13:34:05.682Z,75.10
2022-08-26T13:36:32.520Z,75.00
2022-08-26T13:38:59.322Z,75.00
2022-08-26T13:41:29.559Z,75.00
2022-08-26T13:43:56.956Z,75.00
2022-08-26T13:46:26.550Z,75.00
2022-08-26T13:48:54.699Z,75.00
2022-08-26T13:51:22.765Z,75.00
2022-08-26T13:53:50.264Z,74.90
2022-08-26T13:56:17.151Z,74.90
2022-08-26T13:58:44.246Z,74.90
2022-08-26T14:01:13.208Z,75.10
2022-08-26T14:03:40.134Z,75.10
2022-08-26T14:06:06.978Z,75.00
2022-08-26T14:08:33.819Z,75.00
2022-08-26T14:11:00.688Z,75.00
2022-08-26T14:13:27.735Z,75.20
2022-08-26T14:15:54.782Z,75.40
2022-08-26T14:18:25.077Z,75.40
2022-08-26T14:20:53.138Z,75.50
2022-08-26T14:23:19.930Z,75.30
2022-08-26T14:25:46.760Z,75.40
2022-08-26T14:28:13.650Z,75.40
2022-08-26T14:30:40.919Z,75.40
2022-08-26T14:33:09.207Z,75.60
2022-08-26T14:35:36.086Z,75.40
2022-08-26T14:38:02.908Z,75.50
2022-08-26T14:40:30.764Z,75.40
2022-08-26T14:42:58.703Z,75.60
2022-08-26T14:45:26.205Z,75.50
2022-08-26T14:47:53.766Z,75.30
2022-08-26T14:50:22.789Z,75.40
2022-08-26T14:53:09.150Z,75.80
2022-08-26T14:55:37.524Z,75.90
2022-08-26T14:58:04.408Z,76.10
2022-08-26T15:00:31.763Z,76.50
2022-08-26T15:02:58.899Z,77.50
2022-08-26T15:05:25.915Z,76.30
2022-08-26T15:07:52.718Z,76.90
2022-08-26T15:10:19.721Z,76.60
2022-08-26T15:12:46.721Z,76.10
2022-08-26T15:15:15.100Z,75.80
2022-08-26T15:17:42.011Z,75.90
2022-08-26T15:20:11.990Z,76.00
2022-08-26T15:22:42.346Z,77.60
2022-08-26T15:25:09.628Z,77.20
2022-08-26T15:27:36.524Z,77.80
2022-08-26T15:30:05.694Z,77.70
2022-08-26T15:32:32.504Z,77.70
2022-08-26T15:34:59.337Z,78.20
2022-08-26T15:37:26.154Z,78.30
2022-08-26T15:39:53.920Z,77.50
2022-08-26T15:42:20.991Z,77.30
2022-08-26T15:44:47.909Z,77.50
2022-08-26T15:47:14.719Z,77.40
2022-08-26T15:49:41.571Z,77.30
2022-08-26T15:52:08.645Z,77.20
2022-08-26T15:54:35.650Z,76.50
2022-08-26T15:57:02.955Z,76.10
2022-08-26T15:59:31.599Z,76.10
2022-08-26T16:01:59.468Z,76.00
2022-08-26T16:04:27.231Z,76.20
2022-08-26T16:06:55.007Z,75.80
2022-08-26T16:09:24.349Z,75.60
2022-08-26T16:11:51.707Z,75.40
2022-08-26T16:14:18.553Z,76.00
2022-08-26T16:16:45.443Z,75.70
2022-08-26T16:19:12.272Z,75.30
2022-08-26T16:21:39.580Z,75.80
2022-08-26T16:24:06.615Z,75.90
2022-08-26T16:26:34.519Z,75.80
2022-08-26T16:29:02.368Z,75.70
2022-08-26T16:31:29.515Z,76.00
2022-08-26T16:33:56.509Z,76.20
2022-08-26T16:36:23.451Z,76.30
2022-08-26T16:38:53.586Z,76.40
2022-08-26T16:41:20.448Z,76.60
2022-08-26T16:43:47.276Z,77.20
2022-08-26T16:46:16.159Z,77.40
2022-08-26T16:48:43.742Z,77.90
2022-08-26T16:51:16.059Z,78.30
2022-08-26T16:53:43.649Z,78.10
2022-08-26T16:56:17.780Z,78.40
2022-08-26T16:58:44.707Z,79.10
2022-08-26T17:01:11.592Z,78.90
2022-08-26T17:03:38.458Z,77.80
2022-08-26T17:06:05.435Z,77.70
2022-08-26T17:08:32.293Z,77.70
2022-08-26T17:11:00.458Z,78.00
2022-08-26T17:13:34.857Z,77.70
2022-08-26T17:16:04.972Z,77.50
2022-08-26T17:18:33.403Z,78.00
2022-08-26T17:21:02.069Z,77.90
2022-08-26T17:23:28.931Z,77.90
2022-08-26T17:25:55.709Z,78.60
2022-08-26T17:28:22.519Z,77.70
2022-08-26T17:30:49.307Z,78.10
2022-08-26T17:33:17.102Z,77.90
2022-08-26T17:35:48.337Z,78.10
2022-08-26T17:38:15.085Z,78.30
2022-08-26T17:40:41.882Z,78.20
2022-08-26T17:43:12.229Z,78.30
2022-08-26T17:45:40.360Z,77.90
2022-08-26T17:48:07.701Z,77.60
2022-08-26T17:50:34.594Z,76.90
2022-08-26T17:53:01.352Z,76.60
2022-08-26T17:55:28.481Z,76.40
2022-08-26T17:57:55.690Z,76.30
2022-08-26T18:00:26.435Z,76.30
2022-08-26T18:02:54.465Z,76.40
2022-08-26T18:05:22.268Z,76.60
2022-08-26T18:07:49.019Z,76.70
2022-08-26T18:10:17.060Z,76.70
2022-08-26T18:12:43.820Z,76.60
2022-08-26T18:15:11.268Z,76.70
2022-08-26T18:17:41.617Z,76.60
2022-08-26T18:20:14.139Z,76.60
2022-08-26T18:22:40.970Z,76.60
2022-08-26T18:25:08.367Z,76.70
2022-08-26T18:27:37.929Z,69.40
2022-08-26T18:30:06.467Z,68.70
2022-08-26T18:32:33.258Z,69.20
2022-08-26T18:35:00.236Z,69.60
2022-08-26T18:37:29.566Z,69.60
2022-08-26T18:39:59.581Z,69.90
2022-08-26T18:42:26.967Z,70.50
2022-08-26T18:44:53.777Z,70.90
2022-08-26T18:47:20.788Z,70.90
2022-08-26T18:49:48.630Z,71.20
2022-08-26T18:52:15.450Z,71.30
2022-08-26T18:54:42.373Z,71.10
2022-08-26T18:57:09.344Z,72.10
2022-08-26T18:59:36.113Z,72.10
2022-08-26T19:02:03.117Z,71.80
2022-08-26T19:04:29.974Z,70.20
2022-08-26T19:06:56.890Z,71.70
2022-08-26T19:09:26.229Z,71.60
2022-08-26T19:11:53.824Z,71.70
2022-08-26T19:14:20.669Z,71.50
2022-08-26T19:16:48.672Z,71.80
2022-08-26T19:19:15.600Z,71.80
2022-08-26T19:21:42.442Z,71.80
2022-08-26T19:24:15.153Z,71.80
2022-08-26T19:26:43.498Z,71.20
2022-08-26T19:29:10.394Z,74.10
2022-08-26T19:31:37.206Z,74.40
2022-08-26T19:34:05.456Z,75.30
2022-08-26T19:36:32.595Z,73.70
2022-08-26T19:39:00.479Z,75.00
2022-08-26T19:41:37.224Z,74.90
2022-08-26T19:44:08.854Z,77.10
2022-08-26T19:46:36.377Z,79.00
2022-08-26T19:49:03.586Z,77.90
2022-08-26T19:51:31.988Z,74.70
2022-08-26T19:53:59.990Z,74.30
2022-08-26T19:56:28.041Z,74.10
2022-08-26T19:58:55.239Z,73.90
2022-08-26T20:01:22.175Z,73.70
2022-08-26T20:03:49.417Z,75.70
2022-08-26T20:06:16.677Z,76.00
2022-08-26T20:08:43.511Z,76.00
2022-08-26T20:11:14.519Z,77.00
2022-08-26T20:13:41.480Z,77.70
2022-08-26T20:16:10.274Z,77.80
2022-08-26T20:18:56.317Z,77.70
2022-08-26T20:21:29.407Z,77.90
2022-08-26T20:24:00.592Z,78.50
2022-08-26T20:26:28.573Z,78.70
2022-08-26T20:28:55.614Z,77.90
2022-08-26T20:31:22.773Z,77.50
2022-08-26T20:33:50.609Z,77.80
2022-08-26T20:36:18.261Z,77.90
2022-08-26T20:38:46.056Z,78.30
2022-08-26T20:41:13.524Z,78.30
2022-08-26T20:43:40.708Z,77.70
2022-08-26T20:46:10.352Z,78.00
2022-08-26T20:48:44.736Z,78.00
2022-08-26T20:51:12.321Z,78.10
2022-08-26T20:53:39.106Z,78.10
2022-08-26T20:56:08.249Z,78.50
2022-08-26T20:58:35.047Z,78.20
2022-08-26T21:01:07.376Z,78.10
2022-08-26T21:03:35.780Z,78.00
2022-08-26T21:06:03.982Z,77.90
2022-08-26T21:08:33.333Z,78.00
2022-08-26T21:11:00.944Z,78.00
2022-08-26T21:13:35.763Z,78.00
2022-08-26T21:16:10.116Z,78.10
2022-08-26T21:18:37.006Z,78.10
2022-08-26T21:21:05.498Z,78.20
2022-08-26T21:23:32.362Z,78.30
2022-08-26T21:26:10.330Z,78.10
2022-08-26T21:28:38.266Z,78.10
2022-08-26T21:31:09.538Z,78.10
2022-08-26T21:33:36.961Z,78.00
2022-08-26T21:36:04.349Z,77.80
2022-08-26T21:38:31.365Z,77.80
2022-08-26T21:41:02.165Z,77.90
2022-08-26T21:43:35.287Z,77.70
2022-08-26T21:46:07.502Z,77.80
2022-08-26T21:48:35.219Z,77.90
2022-08-26T21:51:04.721Z,78.00
2022-08-26T21:53:31.508Z,78.10
2022-08-26T21:55:58.400Z,78.00
2022-08-26T21:58:25.186Z,78.60
2022-08-26T22:00:52.184Z,78.30
2022-08-26T22:03:19.007Z,78.10
2022-08-26T22:05:50.555Z,77.80
2022-08-26T22:08:22.720Z,77.80
2022-08-26T22:10:53.057Z,77.90
2022-08-26T22:13:24.860Z,78.00
2022-08-26T22:15:51.782Z,78.10
2022-08-26T22:18:21.168Z,78.20
2022-08-26T22:20:48.083Z,78.30
2022-08-26T22:23:14.900Z,78.30
2022-08-26T22:25:41.697Z,78.30
2022-08-26T22:28:08.674Z,78.40
2022-08-26T22:30:35.940Z,78.50
2022-08-26T22:33:03.810Z,78.00
2022-08-26T22:35:30.978Z,77.90
2022-08-26T22:37:58.120Z,77.70
2022-08-26T22:40:25.061Z,77.80
2022-08-26T22:42:55.575Z,77.90
2022-08-26T22:45:24.792Z,78.00
2022-08-26T22:47:51.626Z,78.00
2022-08-26T22:50:18.618Z,78.10
2022-08-26T22:52:45.414Z,78.00
2022-08-26T22:55:12.207Z,78.00
2022-08-26T22:57:39.151Z,78.00
2022-08-26T23:00:07.169Z,78.20
2022-08-26T23:02:38.449Z,77.80
2022-08-26T23:05:05.936Z,77.70
2022-08-26T23:07:32.741Z,77.30
2022-08-26T23:09:59.622Z,77.40
2022-08-26T23:12:27.631Z,77.60
2022-08-26T23:14:54.426Z,78.00
2022-08-26T23:17:21.491Z,79.10
2022-08-26T23:19:48.306Z,79.20
2022-08-26T23:22:16.905Z,79.30
2022-08-26T23:24:43.888Z,79.30
2022-08-26T23:27:10.912Z,79.90
2022-08-26T23:29:39.718Z,79.30
2022-08-26T23:32:06.657Z,79.30
2022-08-26T23:34:52.568Z,79.30
2022-08-26T23:37:20.466Z,79.20
2022-08-26T23:39:48.338Z,79.20
2022-08-26T23:42:15.123Z,79.40
2022-08-26T23:44:42.413Z,79.30
2022-08-26T23:47:09.470Z,79.30
2022-08-26T23:49:36.571Z,79.00
2022-08-26T23:52:22.871Z,78.40
2022-08-26T23:54:49.757Z,78.60
2022-08-26T23:57:17.169Z,78.60
2022-08-26T23:59:44.671Z,78.40
